sensor_id;sensor_type;location;lat;lon;timestamp;temperature;humidity
35127;DHT22;21300;52.006;5.798;2022-08-07T00:00:21;18.70;63.20
35127;DHT22;21300;52.006;5.798;2022-08-07T00:02:46;18.60;63.10
35127;DHT22;21300;52.006;5.798;2022-08-07T00:05:12;18.60;63.20
35127;DHT22;21300;52.006;5.798;2022-08-07T00:07:38;18.60;63.30
35127;DHT22;21300;52.006;5.798;2022-08-07T00:10:04;18.50;63.20
35127;DHT22;21300;52.006;5.798;2022-08-07T00:12:30;18.50;63.30
35127;DHT22;21300;52.006;5.798;2022-08-07T00:14:56;18.50;63.40
35127;DHT22;21300;52.006;5.798;2022-08-07T00:17:22;18.50;63.40
35127;DHT22;21300;52.006;5.798;2022-08-07T00:19:48;18.50;63.40
35127;DHT22;21300;52.006;5.798;2022-08-07T00:22:14;18.40;63.30
35127;DHT22;21300;52.006;5.798;2022-08-07T00:24:40;18.40;63.30
35127;DHT22;21300;52.006;5.798;2022-08-07T00:27:06;18.40;63.30
35127;DHT22;21300;52.006;5.798;2022-08-07T00:29:32;18.40;63.40
35127;DHT22;21300;52.006;5.798;2022-08-07T00:31:58;18.30;63.30
35127;DHT22;21300;52.006;5.798;2022-08-07T00:34:27;18.30;63.30
35127;DHT22;21300;52.006;5.798;2022-08-07T00:36:53;18.30;63.40
35127;DHT22;21300;52.006;5.798;2022-08-07T00:39:19;18.30;63.50
35127;DHT22;21300;52.006;5.798;2022-08-07T00:41:52;18.30;63.50
35127;DHT22;21300;52.006;5.798;2022-08-07T00:44:18;18.20;63.60
35127;DHT22;21300;52.006;5.798;2022-08-07T00:46:44;18.20;63.60
35127;DHT22;21300;52.006;5.798;2022-08-07T00:49:10;18.20;63.60
35127;DHT22;21300;52.006;5.798;2022-08-07T00:51:36;18.20;63.70
35127;DHT22;21300;52.006;5.798;2022-08-07T00:54:02;18.10;63.60
35127;DHT22;21300;52.006;5.798;2022-08-07T00:56:27;18.10;63.70
35127;DHT22;21300;52.006;5.798;2022-08-07T00:58:54;18.10;63.70
35127;DHT22;21300;52.006;5.798;2022-08-07T01:01:20;18.10;63.70
35127;DHT22;21300;52.006;5.798;2022-08-07T01:03:48;18.10;63.70
35127;DHT22;21300;52.006;5.798;2022-08-07T01:06:14;18.00;63.60
35127;DHT22;21300;52.006;5.798;2022-08-07T01:08:40;18.00;63.60
35127;DHT22;21300;52.006;5.798;2022-08-07T01:11:06;18.00;63.60
35127;DHT22;21300;52.006;5.798;2022-08-07T01:13:33;18.00;63.60
35127;DHT22;21300;52.006;5.798;2022-08-07T01:16:00;18.00;63.70
35127;DHT22;21300;52.006;5.798;2022-08-07T01:18:26;17.90;63.70
35127;DHT22;21300;52.006;5.798;2022-08-07T01:23:31;17.90;63.70
35127;DHT22;21300;52.006;5.798;2022-08-07T01:25:58;17.90;63.80
35127;DHT22;21300;52.006;5.798;2022-08-07T01:28:24;17.90;64.50
35127;DHT22;21300;52.006;5.798;2022-08-07T01:30:51;17.80;63.90
35127;DHT22;21300;52.006;5.798;2022-08-07T01:33:18;17.80;63.80
35127;DHT22;21300;52.006;5.798;2022-08-07T01:35:44;17.80;63.90
35127;DHT22;21300;52.006;5.798;2022-08-07T01:38:10;17.70;63.80
35127;DHT22;21300;52.006;5.798;2022-08-07T01:40:39;17.80;63.80
35127;DHT22;21300;52.006;5.798;2022-08-07T01:43:05;17.70;63.80
35127;DHT22;21300;52.006;5.798;2022-08-07T01:45:31;17.70;63.90
35127;DHT22;21300;52.006;5.798;2022-08-07T01:48:00;17.70;63.80
35127;DHT22;21300;52.006;5.798;2022-08-07T01:50:28;17.60;63.90
35127;DHT22;21300;52.006;5.798;2022-08-07T01:52:56;17.60;63.90
35127;DHT22;21300;52.006;5.798;2022-08-07T01:55:35;17.60;63.90
35127;DHT22;21300;52.006;5.798;2022-08-07T01:58:06;17.60;63.90
35127;DHT22;21300;52.006;5.798;2022-08-07T02:00:34;17.60;64.00
35127;DHT22;21300;52.006;5.798;2022-08-07T02:03:06;17.50;64.00
35127;DHT22;21300;52.006;5.798;2022-08-07T02:05:56;17.50;63.90
35127;DHT22;21300;52.006;5.798;2022-08-07T02:08:24;17.50;63.80
35127;DHT22;21300;52.006;5.798;2022-08-07T02:10:51;17.50;64.00
35127;DHT22;21300;52.006;5.798;2022-08-07T02:13:22;17.40;64.00
35127;DHT22;21300;52.006;5.798;2022-08-07T02:15:50;17.40;64.00
35127;DHT22;21300;52.006;5.798;2022-08-07T02:18:17;17.40;64.00
35127;DHT22;21300;52.006;5.798;2022-08-07T02:20:44;17.40;63.90
35127;DHT22;21300;52.006;5.798;2022-08-07T02:23:13;17.40;64.00
35127;DHT22;21300;52.006;5.798;2022-08-07T02:25:40;17.30;64.00
35127;DHT22;21300;52.006;5.798;2022-08-07T02:28:07;17.30;64.10
35127;DHT22;21300;52.006;5.798;2022-08-07T02:30:34;17.30;64.10
35127;DHT22;21300;52.006;5.798;2022-08-07T02:33:01;17.30;64.00
35127;DHT22;21300;52.006;5.798;2022-08-07T02:35:28;17.30;64.00
35127;DHT22;21300;52.006;5.798;2022-08-07T02:37:56;17.20;64.00
35127;DHT22;21300;52.006;5.798;2022-08-07T02:40:23;17.20;63.90
35127;DHT22;21300;52.006;5.798;2022-08-07T02:42:49;17.20;64.10
35127;DHT22;21300;52.006;5.798;2022-08-07T02:45:16;17.20;64.10
35127;DHT22;21300;52.006;5.798;2022-08-07T02:47:43;17.10;64.00
35127;DHT22;21300;52.006;5.798;2022-08-07T02:50:09;17.10;64.20
35127;DHT22;21300;52.006;5.798;2022-08-07T02:52:41;17.10;64.10
35127;DHT22;21300;52.006;5.798;2022-08-07T02:55:13;17.10;64.10
35127;DHT22;21300;52.006;5.798;2022-08-07T02:57:41;17.10;64.10
35127;DHT22;21300;52.006;5.798;2022-08-07T03:00:09;17.10;64.10
35127;DHT22;21300;52.006;5.798;2022-08-07T03:02:36;17.00;64.00
35127;DHT22;21300;52.006;5.798;2022-08-07T03:05:02;17.00;63.90
35127;DHT22;21300;52.006;5.798;2022-08-07T03:07:28;17.00;64.20
35127;DHT22;21300;52.006;5.798;2022-08-07T03:09:55;17.00;64.00
35127;DHT22;21300;52.006;5.798;2022-08-07T03:12:21;16.90;64.10
35127;DHT22;21300;52.006;5.798;2022-08-07T03:14:47;16.90;64.10
35127;DHT22;21300;52.006;5.798;2022-08-07T03:17:14;16.90;64.10
35127;DHT22;21300;52.006;5.798;2022-08-07T03:19:41;16.90;64.20
35127;DHT22;21300;52.006;5.798;2022-08-07T03:22:07;16.90;64.20
35127;DHT22;21300;52.006;5.798;2022-08-07T03:24:33;16.90;64.20
35127;DHT22;21300;52.006;5.798;2022-08-07T03:27:01;16.90;64.10
35127;DHT22;21300;52.006;5.798;2022-08-07T03:29:32;16.90;64.10
35127;DHT22;21300;52.006;5.798;2022-08-07T03:32:02;16.80;64.20
35127;DHT22;21300;52.006;5.798;2022-08-07T03:34:30;16.80;64.10
35127;DHT22;21300;52.006;5.798;2022-08-07T03:36:59;16.80;64.30
35127;DHT22;21300;52.006;5.798;2022-08-07T03:39:26;16.70;64.20
35127;DHT22;21300;52.006;5.798;2022-08-07T03:41:54;16.70;64.20
35127;DHT22;21300;52.006;5.798;2022-08-07T03:44:20;16.70;64.20
35127;DHT22;21300;52.006;5.798;2022-08-07T03:46:46;16.70;64.20
35127;DHT22;21300;52.006;5.798;2022-08-07T03:49:12;16.60;64.20
35127;DHT22;21300;52.006;5.798;2022-08-07T03:51:38;16.60;64.20
35127;DHT22;21300;52.006;5.798;2022-08-07T03:54:04;16.60;64.10
35127;DHT22;21300;52.006;5.798;2022-08-07T03:56:50;16.60;64.10
35127;DHT22;21300;52.006;5.798;2022-08-07T03:59:16;16.60;64.20
35127;DHT22;21300;52.006;5.798;2022-08-07T04:01:44;16.60;64.20
35127;DHT22;21300;52.006;5.798;2022-08-07T04:04:10;16.50;64.20
35127;DHT22;21300;52.006;5.798;2022-08-07T04:06:37;16.50;64.20
35127;DHT22;21300;52.006;5.798;2022-08-07T04:09:06;16.50;64.20
35127;DHT22;21300;52.006;5.798;2022-08-07T04:11:32;16.50;64.20
35127;DHT22;21300;52.006;5.798;2022-08-07T04:14:00;16.50;64.20
35127;DHT22;21300;52.006;5.798;2022-08-07T04:16:27;16.50;64.20
35127;DHT22;21300;52.006;5.798;2022-08-07T04:18:53;16.40;64.20
35127;DHT22;21300;52.006;5.798;2022-08-07T04:21:19;16.40;64.20
35127;DHT22;21300;52.006;5.798;2022-08-07T04:23:45;16.40;64.30
35127;DHT22;21300;52.006;5.798;2022-08-07T04:26:12;16.40;64.40
35127;DHT22;21300;52.006;5.798;2022-08-07T04:28:39;16.30;64.30
35127;DHT22;21300;52.006;5.798;2022-08-07T04:31:05;16.30;64.30
35127;DHT22;21300;52.006;5.798;2022-08-07T04:33:31;16.30;64.40
35127;DHT22;21300;52.006;5.798;2022-08-07T04:35:57;16.30;64.30
35127;DHT22;21300;52.006;5.798;2022-08-07T04:38:24;16.20;64.40
35127;DHT22;21300;52.006;5.798;2022-08-07T04:40:51;16.20;64.30
35127;DHT22;21300;52.006;5.798;2022-08-07T04:43:18;16.20;64.50
35127;DHT22;21300;52.006;5.798;2022-08-07T04:46:12;16.20;64.50
35127;DHT22;21300;52.006;5.798;2022-08-07T04:49:04;16.20;64.50
35127;DHT22;21300;52.006;5.798;2022-08-07T04:54:23;16.20;64.50
35127;DHT22;21300;52.006;5.798;2022-08-07T04:57:01;16.10;64.50
35127;DHT22;21300;52.006;5.798;2022-08-07T04:59:34;16.10;64.60
35127;DHT22;21300;52.006;5.798;2022-08-07T05:02:21;16.10;64.40
35127;DHT22;21300;52.006;5.798;2022-08-07T05:05:09;16.10;64.60
35127;DHT22;21300;52.006;5.798;2022-08-07T05:07:46;16.10;64.60
35127;DHT22;21300;52.006;5.798;2022-08-07T05:10:17;16.10;64.50
35127;DHT22;21300;52.006;5.798;2022-08-07T05:13:07;16.00;64.50
35127;DHT22;21300;52.006;5.798;2022-08-07T05:15:41;16.10;64.60
35127;DHT22;21300;52.006;5.798;2022-08-07T05:18:35;16.00;64.70
35127;DHT22;21300;52.006;5.798;2022-08-07T05:21:06;16.00;64.60
35127;DHT22;21300;52.006;5.798;2022-08-07T05:24:00;16.00;64.70
35127;DHT22;21300;52.006;5.798;2022-08-07T05:26:28;16.00;64.70
35127;DHT22;21300;52.006;5.798;2022-08-07T05:28:59;16.00;64.70
35127;DHT22;21300;52.006;5.798;2022-08-07T05:31:30;16.00;64.70
35127;DHT22;21300;52.006;5.798;2022-08-07T05:33:58;16.00;64.80
35127;DHT22;21300;52.006;5.798;2022-08-07T05:36:26;16.00;64.70
35127;DHT22;21300;52.006;5.798;2022-08-07T05:38:52;16.00;64.80
35127;DHT22;21300;52.006;5.798;2022-08-07T05:41:19;16.00;64.80
35127;DHT22;21300;52.006;5.798;2022-08-07T05:43:48;16.00;64.80
35127;DHT22;21300;52.006;5.798;2022-08-07T05:46:15;15.90;64.70
35127;DHT22;21300;52.006;5.798;2022-08-07T05:48:41;16.00;64.80
35127;DHT22;21300;52.006;5.798;2022-08-07T05:51:08;16.00;64.70
35127;DHT22;21300;52.006;5.798;2022-08-07T05:53:34;16.00;64.80
35127;DHT22;21300;52.006;5.798;2022-08-07T05:56:01;16.00;64.80
35127;DHT22;21300;52.006;5.798;2022-08-07T05:58:28;16.00;64.70
35127;DHT22;21300;52.006;5.798;2022-08-07T06:00:56;16.00;64.80
35127;DHT22;21300;52.006;5.798;2022-08-07T06:03:22;16.00;64.80
35127;DHT22;21300;52.006;5.798;2022-08-07T06:05:49;16.00;64.90
35127;DHT22;21300;52.006;5.798;2022-08-07T06:08:16;16.00;64.90
35127;DHT22;21300;52.006;5.798;2022-08-07T06:10:42;16.00;64.90
35127;DHT22;21300;52.006;5.798;2022-08-07T06:13:08;16.00;64.80
35127;DHT22;21300;52.006;5.798;2022-08-07T06:15:35;16.00;64.80
35127;DHT22;21300;52.006;5.798;2022-08-07T06:18:03;16.00;64.90
35127;DHT22;21300;52.006;5.798;2022-08-07T06:20:30;16.00;64.80
35127;DHT22;21300;52.006;5.798;2022-08-07T06:22:59;16.00;64.80
35127;DHT22;21300;52.006;5.798;2022-08-07T06:25:25;16.00;64.90
35127;DHT22;21300;52.006;5.798;2022-08-07T06:27:51;16.10;64.70
35127;DHT22;21300;52.006;5.798;2022-08-07T06:30:17;16.10;64.60
35127;DHT22;21300;52.006;5.798;2022-08-07T06:32:42;16.10;64.90
35127;DHT22;21300;52.006;5.798;2022-08-07T06:35:08;16.00;64.80
35127;DHT22;21300;52.006;5.798;2022-08-07T06:37:34;16.00;65.30
35127;DHT22;21300;52.006;5.798;2022-08-07T06:39:59;16.00;65.40
35127;DHT22;21300;52.006;5.798;2022-08-07T06:42:26;16.00;65.30
35127;DHT22;21300;52.006;5.798;2022-08-07T06:44:55;15.90;65.50
35127;DHT22;21300;52.006;5.798;2022-08-07T06:47:22;16.00;65.70
35127;DHT22;21300;52.006;5.798;2022-08-07T06:49:49;16.00;65.90
35127;DHT22;21300;52.006;5.798;2022-08-07T06:52:15;16.00;65.50
35127;DHT22;21300;52.006;5.798;2022-08-07T06:54:42;16.10;65.10
35127;DHT22;21300;52.006;5.798;2022-08-07T06:57:09;16.20;64.90
35127;DHT22;21300;52.006;5.798;2022-08-07T06:59:39;16.30;64.80
35127;DHT22;21300;52.006;5.798;2022-08-07T07:02:07;16.30;65.10
35127;DHT22;21300;52.006;5.798;2022-08-07T07:04:33;16.40;64.70
35127;DHT22;21300;52.006;5.798;2022-08-07T07:07:00;16.30;64.60
35127;DHT22;21300;52.006;5.798;2022-08-07T07:09:29;16.40;64.70
35127;DHT22;21300;52.006;5.798;2022-08-07T07:14:48;16.50;64.80
35127;DHT22;21300;52.006;5.798;2022-08-07T07:17:23;16.40;64.90
35127;DHT22;21300;52.006;5.798;2022-08-07T07:19:55;16.50;64.80
35127;DHT22;21300;52.006;5.798;2022-08-07T07:22:22;16.50;64.70
35127;DHT22;21300;52.006;5.798;2022-08-07T07:24:49;16.50;65.20
35127;DHT22;21300;52.006;5.798;2022-08-07T07:27:16;16.50;65.20
35127;DHT22;21300;52.006;5.798;2022-08-07T07:29:48;16.50;65.20
35127;DHT22;21300;52.006;5.798;2022-08-07T07:32:14;16.50;65.40
35127;DHT22;21300;52.006;5.798;2022-08-07T07:34:46;16.50;65.50
35127;DHT22;21300;52.006;5.798;2022-08-07T07:37:13;16.50;65.50
35127;DHT22;21300;52.006;5.798;2022-08-07T07:39:41;16.50;65.60
35127;DHT22;21300;52.006;5.798;2022-08-07T07:42:09;16.50;65.50
35127;DHT22;21300;52.006;5.798;2022-08-07T07:44:38;16.50;65.50
35127;DHT22;21300;52.006;5.798;2022-08-07T07:47:07;16.60;65.70
35127;DHT22;21300;52.006;5.798;2022-08-07T07:49:35;16.60;65.60
35127;DHT22;21300;52.006;5.798;2022-08-07T07:52:02;16.60;65.80
35127;DHT22;21300;52.006;5.798;2022-08-07T07:54:29;16.60;65.90
35127;DHT22;21300;52.006;5.798;2022-08-07T07:56:56;16.60;65.70
35127;DHT22;21300;52.006;5.798;2022-08-07T07:59:24;16.60;66.60
35127;DHT22;21300;52.006;5.798;2022-08-07T08:01:51;16.70;66.00
35127;DHT22;21300;52.006;5.798;2022-08-07T08:04:18;16.70;65.80
35127;DHT22;21300;52.006;5.798;2022-08-07T08:06:46;16.70;66.20
35127;DHT22;21300;52.006;5.798;2022-08-07T08:09:14;16.70;65.90
35127;DHT22;21300;52.006;5.798;2022-08-07T08:11:40;16.80;66.00
35127;DHT22;21300;52.006;5.798;2022-08-07T08:14:07;16.80;66.20
35127;DHT22;21300;52.006;5.798;2022-08-07T08:16:42;16.80;66.30
35127;DHT22;21300;52.006;5.798;2022-08-07T08:19:18;16.80;66.10
35127;DHT22;21300;52.006;5.798;2022-08-07T08:21:47;16.90;66.30
35127;DHT22;21300;52.006;5.798;2022-08-07T08:24:41;16.90;66.30
35127;DHT22;21300;52.006;5.798;2022-08-07T08:27:28;16.90;66.20
35127;DHT22;21300;52.006;5.798;2022-08-07T08:30:00;17.00;67.20
35127;DHT22;21300;52.006;5.798;2022-08-07T08:32:28;17.00;66.30
35127;DHT22;21300;52.006;5.798;2022-08-07T08:34:57;17.00;66.20
35127;DHT22;21300;52.006;5.798;2022-08-07T08:37:27;17.10;66.20
35127;DHT22;21300;52.006;5.798;2022-08-07T08:39:54;17.10;66.10
35127;DHT22;21300;52.006;5.798;2022-08-07T08:45:04;17.20;66.30
35127;DHT22;21300;52.006;5.798;2022-08-07T08:50:39;17.30;66.30
35127;DHT22;21300;52.006;5.798;2022-08-07T08:55:55;17.40;66.60
35127;DHT22;21300;52.006;5.798;2022-08-07T09:01:43;17.50;66.60
35127;DHT22;21300;52.006;5.798;2022-08-07T09:09:57;17.60;66.80
35127;DHT22;21300;52.006;5.798;2022-08-07T09:12:41;17.70;66.80
35127;DHT22;21300;52.006;5.798;2022-08-07T09:15:27;17.70;66.80
35127;DHT22;21300;52.006;5.798;2022-08-07T09:26:48;18.00;66.70
35127;DHT22;21300;52.006;5.798;2022-08-07T09:29:38;18.00;66.40
35127;DHT22;21300;52.006;5.798;2022-08-07T09:41:14;18.30;66.40
35127;DHT22;21300;52.006;5.798;2022-08-07T09:52:18;18.60;67.10
35127;DHT22;21300;52.006;5.798;2022-08-07T09:55:19;18.60;67.10
35127;DHT22;21300;52.006;5.798;2022-08-07T10:09:38;19.00;67.00
35127;DHT22;21300;52.006;5.798;2022-08-07T10:12:19;19.00;66.40
35127;DHT22;21300;52.006;5.798;2022-08-07T10:18:01;19.20;67.10
35127;DHT22;21300;52.006;5.798;2022-08-07T10:27:05;19.40;66.80
35127;DHT22;21300;52.006;5.798;2022-08-07T10:29:36;19.40;66.40
35127;DHT22;21300;52.006;5.798;2022-08-07T10:34:56;19.60;66.60
35127;DHT22;21300;52.006;5.798;2022-08-07T10:38:01;19.60;66.30
35127;DHT22;21300;52.006;5.798;2022-08-07T10:40:39;19.70;66.70
35127;DHT22;21300;52.006;5.798;2022-08-07T10:43:17;19.70;66.60
35127;DHT22;21300;52.006;5.798;2022-08-07T10:45:48;19.80;65.90
35127;DHT22;21300;52.006;5.798;2022-08-07T10:53:29;19.90;66.70
35127;DHT22;21300;52.006;5.798;2022-08-07T10:56:22;19.90;66.70
35127;DHT22;21300;52.006;5.798;2022-08-07T10:59:11;20.00;66.80
35127;DHT22;21300;52.006;5.798;2022-08-07T11:09:48;20.30;65.80
35127;DHT22;21300;52.006;5.798;2022-08-07T11:12:21;20.30;65.30
35127;DHT22;21300;52.006;5.798;2022-08-07T11:14:59;20.40;64.90
35127;DHT22;21300;52.006;5.798;2022-08-07T11:17:47;20.40;65.80
35127;DHT22;21300;52.006;5.798;2022-08-07T11:20:23;20.40;66.10
35127;DHT22;21300;52.006;5.798;2022-08-07T11:23:06;20.40;66.30
35127;DHT22;21300;52.006;5.798;2022-08-07T11:25:35;20.50;66.70
35127;DHT22;21300;52.006;5.798;2022-08-07T11:28:27;20.50;66.50
35127;DHT22;21300;52.006;5.798;2022-08-07T11:31:12;20.60;66.50
35127;DHT22;21300;52.006;5.798;2022-08-07T11:33:53;20.60;66.30
35127;DHT22;21300;52.006;5.798;2022-08-07T11:45:36;20.80;64.90
35127;DHT22;21300;52.006;5.798;2022-08-07T11:51:08;20.90;65.50
35127;DHT22;21300;52.006;5.798;2022-08-07T12:05:28;21.20;65.30
35127;DHT22;21300;52.006;5.798;2022-08-07T12:10:46;21.30;65.40
35127;DHT22;21300;52.006;5.798;2022-08-07T12:16:19;21.30;65.00
35127;DHT22;21300;52.006;5.798;2022-08-07T12:21:54;21.50;64.40
35127;DHT22;21300;52.006;5.798;2022-08-07T12:27:11;21.60;64.50
35127;DHT22;21300;52.006;5.798;2022-08-07T12:29:53;21.60;64.80
35127;DHT22;21300;52.006;5.798;2022-08-07T12:35:09;21.70;65.20
35127;DHT22;21300;52.006;5.798;2022-08-07T12:37:36;21.70;64.90
35127;DHT22;21300;52.006;5.798;2022-08-07T12:40:03;21.80;65.00
35127;DHT22;21300;52.006;5.798;2022-08-07T12:42:30;21.80;64.50
35127;DHT22;21300;52.006;5.798;2022-08-07T12:45:02;21.90;63.60
35127;DHT22;21300;52.006;5.798;2022-08-07T12:47:56;21.90;64.00
35127;DHT22;21300;52.006;5.798;2022-08-07T12:50:34;21.90;63.00
35127;DHT22;21300;52.006;5.798;2022-08-07T12:58:39;22.00;64.50
35127;DHT22;21300;52.006;5.798;2022-08-07T13:04:08;22.10;63.80
35127;DHT22;21300;52.006;5.798;2022-08-07T13:18:15;22.20;64.00
35127;DHT22;21300;52.006;5.798;2022-08-07T13:20:50;22.30;63.40
35127;DHT22;21300;52.006;5.798;2022-08-07T13:23:34;22.30;62.90
35127;DHT22;21300;52.006;5.798;2022-08-07T13:26:12;22.40;63.30
35127;DHT22;21300;52.006;5.798;2022-08-07T13:31:58;22.40;62.00
35127;DHT22;21300;52.006;5.798;2022-08-07T13:34:56;22.40;62.00
35127;DHT22;21300;52.006;5.798;2022-08-07T13:38:00;22.50;59.50
35127;DHT22;21300;52.006;5.798;2022-08-07T13:40:33;22.50;59.90
35127;DHT22;21300;52.006;5.798;2022-08-07T13:43:10;22.50;59.40
35127;DHT22;21300;52.006;5.798;2022-08-07T13:45:40;22.50;59.90
35127;DHT22;21300;52.006;5.798;2022-08-07T13:48:06;22.60;61.70
35127;DHT22;21300;52.006;5.798;2022-08-07T13:50:51;22.60;62.20
35127;DHT22;21300;52.006;5.798;2022-08-07T13:53:24;22.60;62.20
35127;DHT22;21300;52.006;5.798;2022-08-07T13:55:51;22.70;61.00
35127;DHT22;21300;52.006;5.798;2022-08-07T13:58:19;22.70;61.10
35127;DHT22;21300;52.006;5.798;2022-08-07T14:01:14;22.70;60.80
35127;DHT22;21300;52.006;5.798;2022-08-07T14:03:41;22.70;61.50
35127;DHT22;21300;52.006;5.798;2022-08-07T14:06:09;22.70;61.70
35127;DHT22;21300;52.006;5.798;2022-08-07T14:08:42;22.70;62.00
35127;DHT22;21300;52.006;5.798;2022-08-07T14:11:11;22.80;61.70
35127;DHT22;21300;52.006;5.798;2022-08-07T14:13:39;22.80;61.90
35127;DHT22;21300;52.006;5.798;2022-08-07T14:16:11;22.80;61.20
35127;DHT22;21300;52.006;5.798;2022-08-07T14:18:45;22.80;61.20
35127;DHT22;21300;52.006;5.798;2022-08-07T14:21:14;22.80;60.00
35127;DHT22;21300;52.006;5.798;2022-08-07T14:23:53;22.90;61.10
35127;DHT22;21300;52.006;5.798;2022-08-07T14:26:21;22.90;61.20
35127;DHT22;21300;52.006;5.798;2022-08-07T14:28:48;22.90;61.30
35127;DHT22;21300;52.006;5.798;2022-08-07T14:31:14;22.90;61.10
35127;DHT22;21300;52.006;5.798;2022-08-07T14:33:40;22.90;60.00
35127;DHT22;21300;52.006;5.798;2022-08-07T14:36:08;22.90;59.80
35127;DHT22;21300;52.006;5.798;2022-08-07T14:38:34;23.00;60.20
35127;DHT22;21300;52.006;5.798;2022-08-07T14:41:04;23.00;60.40
35127;DHT22;21300;52.006;5.798;2022-08-07T14:43:33;23.00;60.30
35127;DHT22;21300;52.006;5.798;2022-08-07T14:45:59;23.00;60.00
35127;DHT22;21300;52.006;5.798;2022-08-07T14:48:29;23.00;60.10
35127;DHT22;21300;52.006;5.798;2022-08-07T14:50:58;23.00;59.90
35127;DHT22;21300;52.006;5.798;2022-08-07T14:53:25;23.10;59.30
35127;DHT22;21300;52.006;5.798;2022-08-07T14:55:53;23.10;59.80
35127;DHT22;21300;52.006;5.798;2022-08-07T14:58:26;23.10;60.20
35127;DHT22;21300;52.006;5.798;2022-08-07T15:00:53;23.10;60.30
35127;DHT22;21300;52.006;5.798;2022-08-07T15:03:25;23.10;60.10
35127;DHT22;21300;52.006;5.798;2022-08-07T15:05:52;23.10;60.20
35127;DHT22;21300;52.006;5.798;2022-08-07T15:08:42;23.10;59.90
35127;DHT22;21300;52.006;5.798;2022-08-07T15:11:13;23.20;59.30
35127;DHT22;21300;52.006;5.798;2022-08-07T15:16:16;23.20;60.30
35127;DHT22;21300;52.006;5.798;2022-08-07T15:18:49;23.20;60.20
35127;DHT22;21300;52.006;5.798;2022-08-07T15:21:22;23.20;60.00
35127;DHT22;21300;52.006;5.798;2022-08-07T15:23:53;23.20;60.30
35127;DHT22;21300;52.006;5.798;2022-08-07T15:26:23;23.20;60.20
35127;DHT22;21300;52.006;5.798;2022-08-07T15:28:53;23.20;60.00
35127;DHT22;21300;52.006;5.798;2022-08-07T15:31:22;23.20;60.10
35127;DHT22;21300;52.006;5.798;2022-08-07T15:33:56;23.20;60.20
35127;DHT22;21300;52.006;5.798;2022-08-07T15:36:23;23.30;60.00
35127;DHT22;21300;52.006;5.798;2022-08-07T15:38:50;23.30;60.00
35127;DHT22;21300;52.006;5.798;2022-08-07T15:41:20;23.30;59.70
35127;DHT22;21300;52.006;5.798;2022-08-07T15:44:02;23.30;59.60
35127;DHT22;21300;52.006;5.798;2022-08-07T15:46:29;23.30;59.80
35127;DHT22;21300;52.006;5.798;2022-08-07T15:48:58;23.30;59.90
35127;DHT22;21300;52.006;5.798;2022-08-07T15:51:26;23.30;60.00
35127;DHT22;21300;52.006;5.798;2022-08-07T15:53:57;23.30;59.90
35127;DHT22;21300;52.006;5.798;2022-08-07T15:56:36;23.30;59.90
35127;DHT22;21300;52.006;5.798;2022-08-07T15:59:10;23.30;59.90
35127;DHT22;21300;52.006;5.798;2022-08-07T16:01:50;23.30;59.90
35127;DHT22;21300;52.006;5.798;2022-08-07T16:04:18;23.30;59.90
35127;DHT22;21300;52.006;5.798;2022-08-07T16:06:53;23.30;59.80
35127;DHT22;21300;52.006;5.798;2022-08-07T16:09:25;23.30;59.30
35127;DHT22;21300;52.006;5.798;2022-08-07T16:26:33;23.30;59.90
35127;DHT22;21300;52.006;5.798;2022-08-07T16:34:50;23.30;60.00
35127;DHT22;21300;52.006;5.798;2022-08-07T16:46:05;23.30;60.00
35127;DHT22;21300;52.006;5.798;2022-08-07T16:51:49;23.30;59.90
35127;DHT22;21300;52.006;5.798;2022-08-07T17:08:04;23.30;59.80
35127;DHT22;21300;52.006;5.798;2022-08-07T17:10:49;23.30;59.60
35127;DHT22;21300;52.006;5.798;2022-08-07T17:16:07;23.30;59.70
35127;DHT22;21300;52.006;5.798;2022-08-07T17:19:05;23.30;59.60
35127;DHT22;21300;52.006;5.798;2022-08-07T17:21:44;23.30;59.50
35127;DHT22;21300;52.006;5.798;2022-08-07T17:26:45;23.30;59.50
35127;DHT22;21300;52.006;5.798;2022-08-07T17:32:32;23.30;59.50
35127;DHT22;21300;52.006;5.798;2022-08-07T17:35:14;23.30;59.50
35127;DHT22;21300;52.006;5.798;2022-08-07T17:38:03;23.20;59.40
35127;DHT22;21300;52.006;5.798;2022-08-07T17:40:33;23.20;59.30
35127;DHT22;21300;52.006;5.798;2022-08-07T17:43:15;23.20;59.00
35127;DHT22;21300;52.006;5.798;2022-08-07T17:46:08;23.20;58.80
35127;DHT22;21300;52.006;5.798;2022-08-07T17:48:49;23.20;59.00
35127;DHT22;21300;52.006;5.798;2022-08-07T17:51:36;23.10;56.20
35127;DHT22;21300;52.006;5.798;2022-08-07T17:54:18;23.10;57.20
35127;DHT22;21300;52.006;5.798;2022-08-07T17:56:54;23.10;57.60
35127;DHT22;21300;52.006;5.798;2022-08-07T17:59:26;23.10;57.90
35127;DHT22;21300;52.006;5.798;2022-08-07T18:04:54;23.10;57.90
35127;DHT22;21300;52.006;5.798;2022-08-07T18:10:12;23.10;58.10
35127;DHT22;21300;52.006;5.798;2022-08-07T18:15:28;23.10;58.20
35127;DHT22;21300;52.006;5.798;2022-08-07T18:18:06;23.10;58.30
35127;DHT22;21300;52.006;5.798;2022-08-07T18:20:38;23.00;58.30
35127;DHT22;21300;52.006;5.798;2022-08-07T18:23:08;23.00;58.30
35127;DHT22;21300;52.006;5.798;2022-08-07T18:25:34;23.00;58.30
35127;DHT22;21300;52.006;5.798;2022-08-07T18:38:44;22.90;58.50
35127;DHT22;21300;52.006;5.798;2022-08-07T18:46:53;22.90;58.50
35127;DHT22;21300;52.006;5.798;2022-08-07T18:49:35;22.90;58.50
35127;DHT22;21300;52.006;5.798;2022-08-07T18:55:10;22.80;58.60
35127;DHT22;21300;52.006;5.798;2022-08-07T19:00:08;22.80;58.60
35127;DHT22;21300;52.006;5.798;2022-08-07T19:02:42;22.80;58.40
35127;DHT22;21300;52.006;5.798;2022-08-07T19:05:25;22.70;58.30
35127;DHT22;21300;52.006;5.798;2022-08-07T19:07:59;22.70;58.30
35127;DHT22;21300;52.006;5.798;2022-08-07T19:10:31;22.70;58.30
35127;DHT22;21300;52.006;5.798;2022-08-07T19:13:25;22.70;58.10
35127;DHT22;21300;52.006;5.798;2022-08-07T19:16:08;22.70;58.40
35127;DHT22;21300;52.006;5.798;2022-08-07T19:19:10;22.70;58.30
35127;DHT22;21300;52.006;5.798;2022-08-07T19:21:56;22.60;58.20
35127;DHT22;21300;52.006;5.798;2022-08-07T19:24:35;22.60;58.20
35127;DHT22;21300;52.006;5.798;2022-08-07T19:27:12;22.60;58.20
35127;DHT22;21300;52.006;5.798;2022-08-07T19:29:45;22.50;58.30
35127;DHT22;21300;52.006;5.798;2022-08-07T19:32:13;22.60;58.20
35127;DHT22;21300;52.006;5.798;2022-08-07T19:34:51;22.50;58.30
35127;DHT22;21300;52.006;5.798;2022-08-07T19:37:19;22.50;58.20
35127;DHT22;21300;52.006;5.798;2022-08-07T19:39:55;22.50;58.20
35127;DHT22;21300;52.006;5.798;2022-08-07T19:42:21;22.50;58.20
35127;DHT22;21300;52.006;5.798;2022-08-07T19:44:52;22.40;58.20
35127;DHT22;21300;52.006;5.798;2022-08-07T19:47:20;22.40;58.00
35127;DHT22;21300;52.006;5.798;2022-08-07T19:49:49;22.40;58.00
35127;DHT22;21300;52.006;5.798;2022-08-07T19:52:19;22.40;58.10
35127;DHT22;21300;52.006;5.798;2022-08-07T19:54:47;22.30;58.10